Time;durP1;ratioP1;P1;durP2;ratioP2;P2;SDS_P1;SDS_P2;PMS_P1;PMS_P2;Temp;Humidity;BMP_temperature;BMP_pressure;BME280_temperature;BME280_humidity;BME280_pressure;Samples;Min_cycle;Max_cycle;Signal;HPM_P1;HPM_P2
2021/04/05 00:00:31;;;;;;;12.43;10.60;;;;;;;;;;5008226;28;20437;-81
2021/04/05 00:02:58;;;;;;;13.93;10.30;;;;;;;;;;5009068;28;20371;-81
2021/04/05 00:05:28;;;;;;;15.25;10.70;;;;;;;;;;5008887;28;20402;-81
2021/04/05 00:07:54;;;;;;;12.00;9.68;;;;;;;;;;5008297;28;20390;-81
2021/04/05 00:10:20;;;;;;;12.45;10.20;;;;;;;;;;5008920;28;20753;-81
2021/04/05 00:12:47;;;;;;;12.98;10.45;;;;;;;;;;5009186;28;20422;-81
2021/04/05 00:15:13;;;;;;;12.25;10.23;;;;;;;;;;5008835;28;20454;-81
2021/04/05 00:17:40;;;;;;;12.88;9.98;;;;;;;;;;5009170;28;20792;-81
2021/04/05 00:20:11;;;;;;;17.65;10.85;;;;;;;;;;5008858;28;20869;-81
2021/04/05 00:22:37;;;;;;;13.43;10.48;;;;;;;;;;5008882;28;20913;-81
2021/04/05 00:25:04;;;;;;;15.45;11.27;;;;;;;;;;5008924;28;20393;-81
2021/04/05 00:27:30;;;;;;;12.80;11.40;;;;;;;;;;5008430;28;20528;-81
2021/04/05 00:29:56;;;;;;;16.33;13.03;;;;;;;;;;5008730;28;20384;-80
2021/04/05 00:32:22;;;;;;;14.10;12.63;;;;;;;;;;5008965;28;20407;-81
2021/04/05 00:34:48;;;;;;;18.85;13.98;;;;;;;;;;5008987;28;20426;-81
2021/04/05 00:37:14;;;;;;;19.95;15.35;;;;;;;;;;5010203;28;20425;-81
2021/04/05 00:39:40;;;;;;;18.83;15.68;;;;;;;;;;5012714;28;20402;-81
2021/04/05 00:42:07;;;;;;;20.83;18.08;;;;;;;;;;5012580;28;20418;-82
2021/04/05 00:44:33;;;;;;;24.35;21.45;;;;;;;;;;5012403;28;20414;-80
2021/04/05 00:46:59;;;;;;;27.38;21.85;;;;;;;;;;5011862;28;20403;-80
2021/04/05 00:49:25;;;;;;;25.23;22.25;;;;;;;;;;5011018;28;20754;-81
2021/04/05 00:51:51;;;;;;;27.17;24.25;;;;;;;;;;5012918;28;20440;-81
2021/04/05 00:54:17;;;;;;;28.73;24.95;;;;;;;;;;5012496;28;20458;-80
2021/04/05 00:56:43;;;;;;;27.60;24.70;;;;;;;;;;5010977;28;20387;-81
2021/04/05 00:59:09;;;;;;;27.73;24.70;;;;;;;;;;5011518;28;20433;-81
2021/04/05 01:01:35;;;;;;;26.75;23.92;;;;;;;;;;5012430;28;20375;-81
2021/04/05 01:04:01;;;;;;;26.20;23.25;;;;;;;;;;5010908;28;20411;-81
2021/04/05 01:06:29;;;;;;;26.73;23.63;;;;;;;;;;5012101;28;20895;-81
2021/04/05 01:08:55;;;;;;;26.55;22.88;;;;;;;;;;5011490;28;20448;-81
2021/04/05 01:11:23;;;;;;;28.67;24.50;;;;;;;;;;5012141;28;20801;-81
2021/04/05 01:13:49;;;;;;;35.83;26.98;;;;;;;;;;5011934;28;20368;-81
2021/04/05 01:16:15;;;;;;;40.58;28.00;;;;;;;;;;5011680;28;20863;-81
2021/04/05 01:18:42;;;;;;;34.03;25.58;;;;;;;;;;5009729;28;20383;-80
2021/04/05 01:21:08;;;;;;;35.00;25.87;;;;;;;;;;5011530;28;20390;-81
2021/04/05 01:23:34;;;;;;;45.78;30.38;;;;;;;;;;5010382;28;20948;-81
2021/04/05 01:26:01;;;;;;;24.27;20.55;;;;;;;;;;5011430;28;20493;-81
2021/04/05 01:28:27;;;;;;;22.98;18.92;;;;;;;;;;5009808;28;20393;-81
2021/04/05 01:30:54;;;;;;;23.45;18.63;;;;;;;;;;5010370;28;20738;-81
2021/04/05 01:33:22;;;;;;;24.85;20.33;;;;;;;;;;5011745;28;20403;-81
2021/04/05 01:35:49;;;;;;;21.58;17.75;;;;;;;;;;5010217;28;20384;-81
2021/04/05 01:38:17;;;;;;;18.70;16.47;;;;;;;;;;5011210;28;20881;-81
2021/04/05 01:40:44;;;;;;;19.52;15.82;;;;;;;;;;5012217;28;20384;-82
2021/04/05 01:43:10;;;;;;;17.33;15.35;;;;;;;;;;5010424;28;20506;-81
2021/04/05 01:45:36;;;;;;;18.40;15.50;;;;;;;;;;5011269;28;20464;-81
2021/04/05 01:48:03;;;;;;;18.10;14.80;;;;;;;;;;5010460;28;20375;-80
2021/04/05 01:50:31;;;;;;;18.58;15.18;;;;;;;;;;5011414;28;20923;-81
2021/04/05 01:53:02;;;;;;;17.80;15.10;;;;;;;;;;5011678;28;20737;-81
2021/04/05 01:55:28;;;;;;;21.63;16.35;;;;;;;;;;5010229;28;20438;-81
2021/04/05 01:57:54;;;;;;;21.17;16.38;;;;;;;;;;5010665;28;20437;-81
2021/04/05 02:00:23;;;;;;;19.52;16.70;;;;;;;;;;5011550;28;20462;-81
2021/04/05 02:02:49;;;;;;;21.48;17.15;;;;;;;;;;5010043;28;20507;-81
2021/04/05 02:05:17;;;;;;;21.67;18.23;;;;;;;;;;5009925;28;20367;-81
2021/04/05 02:07:43;;;;;;;24.98;18.77;;;;;;;;;;5010658;28;20893;-81
2021/04/05 02:10:10;;;;;;;25.50;19.88;;;;;;;;;;5009851;28;20425;-81
2021/04/05 02:12:36;;;;;;;27.20;20.75;;;;;;;;;;5011340;28;20374;-81
2021/04/05 02:15:04;;;;;;;24.80;20.25;;;;;;;;;;5009980;28;20395;-81
2021/04/05 02:17:30;;;;;;;25.20;21.70;;;;;;;;;;5010828;28;20401;-80
2021/04/05 02:19:56;;;;;;;25.85;22.17;;;;;;;;;;5009657;28;20371;-81
2021/04/05 02:22:23;;;;;;;29.53;23.27;;;;;;;;;;5009252;28;20727;-81
2021/04/05 02:24:49;;;;;;;30.38;24.75;;;;;;;;;;5010301;28;20378;-81
2021/04/05 02:27:15;;;;;;;32.38;26.05;;;;;;;;;;5008520;28;20414;-81
2021/04/05 02:29:41;;;;;;;33.00;26.98;;;;;;;;;;5008854;28;20434;-82
2021/04/05 02:32:07;;;;;;;36.43;29.40;;;;;;;;;;5010213;28;20404;-81
2021/04/05 02:34:33;;;;;;;36.22;29.90;;;;;;;;;;5011328;28;20484;-80
2021/04/05 02:36:59;;;;;;;42.83;34.05;;;;;;;;;;5014484;28;20466;-81
2021/04/05 02:39:25;;;;;;;41.30;33.45;;;;;;;;;;5014255;28;20384;-81
2021/04/05 02:41:52;;;;;;;48.47;36.45;;;;;;;;;;5011449;28;20889;-81
2021/04/05 02:44:19;;;;;;;46.10;37.05;;;;;;;;;;5010449;28;20740;-80
2021/04/05 02:46:47;;;;;;;44.80;37.97;;;;;;;;;;5008815;28;20494;-81
2021/04/05 02:49:14;;;;;;;48.88;39.30;;;;;;;;;;5010325;28;20371;-81
2021/04/05 02:51:44;;;;;;;47.88;40.35;;;;;;;;;;5010926;28;20367;-81
2021/04/05 02:54:10;;;;;;;51.42;39.13;;;;;;;;;;5009146;28;20375;-81
2021/04/05 02:56:38;;;;;;;49.60;38.67;;;;;;;;;;5010447;28;20379;-81
2021/04/05 02:59:04;;;;;;;47.03;39.10;;;;;;;;;;5009193;28;20462;-81
2021/04/05 03:01:32;;;;;;;51.95;39.88;;;;;;;;;;5009414;28;20431;-81
2021/04/05 03:03:59;;;;;;;47.15;38.97;;;;;;;;;;5009977;28;20399;-81
2021/04/05 03:06:26;;;;;;;47.63;38.35;;;;;;;;;;5008431;28;20753;-80
2021/04/05 03:08:52;;;;;;;48.28;38.47;;;;;;;;;;5009263;28;20399;-81
2021/04/05 03:11:21;;;;;;;46.25;37.38;;;;;;;;;;5009811;28;21147;-81
2021/04/05 03:13:47;;;;;;;47.35;36.47;;;;;;;;;;5009583;28;20380;-81
2021/04/05 03:16:15;;;;;;;45.10;35.27;;;;;;;;;;5009460;28;20458;-81
2021/04/05 03:18:41;;;;;;;45.45;35.42;;;;;;;;;;5009367;28;20379;-81
2021/04/05 03:21:07;;;;;;;44.58;34.88;;;;;;;;;;5008350;28;20395;-81
2021/04/05 03:23:33;;;;;;;47.38;35.33;;;;;;;;;;5009915;28;20462;-80
2021/04/05 03:25:59;;;;;;;43.80;33.42;;;;;;;;;;5009495;28;20399;-81
2021/04/05 03:28:25;;;;;;;42.65;32.97;;;;;;;;;;5009446;28;20383;-81
2021/04/05 03:30:55;;;;;;;40.60;32.10;;;;;;;;;;5008377;28;20513;-81
2021/04/05 03:33:24;;;;;;;42.15;32.83;;;;;;;;;;5009590;28;20490;-81
2021/04/05 03:35:58;;;;;;;41.87;32.37;;;;;;;;;;5009099;28;20380;-81
2021/04/05 03:38:24;;;;;;;41.58;31.27;;;;;;;;;;5008685;28;20411;-81
2021/04/05 03:40:50;;;;;;;38.05;31.40;;;;;;;;;;5009040;28;20873;-81
2021/04/05 03:43:20;;;;;;;42.72;30.95;;;;;;;;;;5009314;28;20382;-81
2021/04/05 03:45:48;;;;;;;40.38;31.27;;;;;;;;;;5009059;28;20403;-81
2021/04/05 03:48:19;;;;;;;40.25;30.50;;;;;;;;;;5008689;28;20811;-81
2021/04/05 03:50:51;;;;;;;43.58;31.63;;;;;;;;;;5009485;28;20809;-81
2021/04/05 03:53:19;;;;;;;39.13;30.23;;;;;;;;;;5009179;28;20367;-81
2021/04/05 03:55:46;;;;;;;39.78;31.20;;;;;;;;;;5008463;28;20510;-81
2021/04/05 03:58:14;;;;;;;43.17;32.30;;;;;;;;;;5009323;28;20378;-81
2021/04/05 04:00:41;;;;;;;45.38;32.03;;;;;;;;;;5007927;28;20498;-81
2021/04/05 04:03:08;;;;;;;42.63;32.03;;;;;;;;;;5009789;28;20375;-81
2021/04/05 04:05:41;;;;;;;43.40;33.15;;;;;;;;;;5008283;28;20893;-81
2021/04/05 04:08:30;;;;;;;46.03;33.38;;;;;;;;;;5008844;28;20391;-81
2021/04/05 04:10:59;;;;;;;42.63;32.77;;;;;;;;;;5009162;28;20411;-81
2021/04/05 04:13:27;;;;;;;44.95;32.47;;;;;;;;;;5011667;28;20492;-82
2021/04/05 04:15:53;;;;;;;42.10;30.83;;;;;;;;;;5013088;28;20491;-81
2021/04/05 04:18:19;;;;;;;42.13;31.60;;;;;;;;;;5012682;28;20422;-81
2021/04/05 04:20:46;;;;;;;42.85;31.20;;;;;;;;;;5013157;28;20383;-81
2021/04/05 04:23:13;;;;;;;43.88;31.67;;;;;;;;;;5013062;28;20861;-81
2021/04/05 04:25:39;;;;;;;46.20;31.70;;;;;;;;;;5012668;28;20493;-81
2021/04/05 04:28:05;;;;;;;40.25;30.65;;;;;;;;;;5011280;28;20399;-82
2021/04/05 04:30:32;;;;;;;42.45;30.38;;;;;;;;;;5013062;28;20394;-81
2021/04/05 04:33:07;;;;;;;41.28;31.73;;;;;;;;;;5012876;28;20437;-81
2021/04/05 04:35:35;;;;;;;39.67;30.15;;;;;;;;;;5013055;28;20382;-81
2021/04/05 04:38:01;;;;;;;44.70;30.33;;;;;;;;;;5012152;28;20394;-81
2021/04/05 04:40:28;;;;;;;40.35;30.75;;;;;;;;;;5013048;28;20363;-81
2021/04/05 04:42:58;;;;;;;39.15;30.35;;;;;;;;;;5012309;28;20466;-80
2021/04/05 04:45:24;;;;;;;41.42;32.42;;;;;;;;;;5010893;28;20394;-81
2021/04/05 04:47:51;;;;;;;42.22;32.53;;;;;;;;;;5013028;28;20429;-81
2021/04/05 04:50:18;;;;;;;43.20;31.27;;;;;;;;;;5014366;28;20385;-81
2021/04/05 04:52:43;;;;;;;43.40;31.48;;;;;;;;;;5012228;28;20391;-80
2021/04/05 04:55:10;;;;;;;43.25;32.03;;;;;;;;;;5012050;28;20453;-81
2021/04/05 04:57:36;;;;;;;41.50;31.58;;;;;;;;;;5011970;28;20418;-81
2021/04/05 05:00:04;;;;;;;41.22;30.92;;;;;;;;;;5012848;28;20375;-82
2021/04/05 05:02:31;;;;;;;41.38;30.70;;;;;;;;;;5012907;28;20707;-81
2021/04/05 05:04:57;;;;;;;39.95;31.85;;;;;;;;;;5012295;28;20363;-80
2021/04/05 05:07:24;;;;;;;45.80;32.07;;;;;;;;;;5011468;28;20425;-80
2021/04/05 05:09:50;;;;;;;40.53;30.90;;;;;;;;;;5012426;28;20437;-81
2021/04/05 05:12:16;;;;;;;48.05;33.30;;;;;;;;;;5012338;28;20379;-81
2021/04/05 05:14:43;;;;;;;43.08;32.28;;;;;;;;;;5011916;28;20425;-81
2021/04/05 05:17:09;;;;;;;43.08;32.22;;;;;;;;;;5009715;28;20793;-81
2021/04/05 05:19:36;;;;;;;41.33;32.38;;;;;;;;;;5010517;28;21018;-81
2021/04/05 05:22:02;;;;;;;41.50;32.33;;;;;;;;;;5011492;28;20821;-81
2021/04/05 05:24:30;;;;;;;42.42;32.22;;;;;;;;;;5010174;28;20390;-81
2021/04/05 05:26:56;;;;;;;42.65;32.88;;;;;;;;;;5011072;28;20403;-81
2021/04/05 05:29:23;;;;;;;39.72;32.22;;;;;;;;;;5011284;28;20387;-81
2021/04/05 05:31:49;;;;;;;42.17;33.25;;;;;;;;;;5014530;28;20394;-81
2021/04/05 05:34:22;;;;;;;47.10;33.78;;;;;;;;;;5013383;28;20878;-81
2021/04/05 05:36:49;;;;;;;44.70;33.35;;;;;;;;;;5014796;28;20402;-81
2021/04/05 05:39:16;;;;;;;43.55;32.15;;;;;;;;;;5012174;28;20877;-82
2021/04/05 05:41:45;;;;;;;45.78;33.38;;;;;;;;;;5011708;28;20403;-81
2021/04/05 05:44:12;;;;;;;41.50;31.83;;;;;;;;;;5011765;28;20454;-81
2021/04/05 05:47:05;;;;;;;43.20;32.45;;;;;;;;;;5011052;28;20399;-81
2021/04/05 05:49:48;;;;;;;43.25;32.35;;;;;;;;;;5009769;28;20380;-81
2021/04/05 05:52:13;;;;;;;43.75;31.52;;;;;;;;;;5009566;28;20478;-81
2021/04/05 05:54:47;;;;;;;44.25;31.75;;;;;;;;;;5009593;28;20467;-81
2021/04/05 05:57:31;;;;;;;42.88;31.85;;;;;;;;;;5010433;28;20370;-81
2021/04/05 06:00:17;;;;;;;40.97;30.85;;;;;;;;;;5010747;28;20363;-81
2021/04/05 06:03:02;;;;;;;45.10;33.00;;;;;;;;;;5012489;28;20483;-81
2021/04/05 06:05:28;;;;;;;39.25;30.55;;;;;;;;;;5010892;28;20929;-81
2021/04/05 06:08:13;;;;;;;44.63;30.98;;;;;;;;;;5012116;28;20413;-81
2021/04/05 06:10:49;;;;;;;43.97;30.95;;;;;;;;;;5012838;28;20375;-81
2021/04/05 06:13:19;;;;;;;40.67;31.35;;;;;;;;;;5011042;28;20762;-81
2021/04/05 06:15:47;;;;;;;43.63;30.35;;;;;;;;;;5012048;28;20422;-81
2021/04/05 06:18:23;;;;;;;43.25;31.20;;;;;;;;;;5010202;28;20375;-81
2021/04/05 06:20:53;;;;;;;42.65;31.27;;;;;;;;;;5010976;28;20391;-81
2021/04/05 06:23:22;;;;;;;41.10;30.88;;;;;;;;;;5009253;28;20395;-81
2021/04/05 06:26:03;;;;;;;39.27;30.80;;;;;;;;;;5010243;28;20482;-81
2021/04/05 06:28:48;;;;;;;41.40;30.40;;;;;;;;;;5010224;28;20371;-81
2021/04/05 06:31:18;;;;;;;41.63;30.40;;;;;;;;;;5009528;28;20383;-81
2021/04/05 06:33:50;;;;;;;40.27;30.60;;;;;;;;;;5010454;28;20726;-81
2021/04/05 06:36:21;;;;;;;39.40;30.45;;;;;;;;;;5010542;28;20375;-81
2021/04/05 06:38:53;;;;;;;43.28;30.92;;;;;;;;;;5009948;28;20385;-81
2021/04/05 06:41:25;;;;;;;40.53;30.73;;;;;;;;;;5010743;28;20380;-81
2021/04/05 06:43:54;;;;;;;45.88;31.73;;;;;;;;;;5008966;28;20845;-81
2021/04/05 06:46:29;;;;;;;47.17;31.80;;;;;;;;;;5009547;28;20901;-81
2021/04/05 06:49:01;;;;;;;46.90;31.85;;;;;;;;;;5009979;28;20367;-81
2021/04/05 06:51:39;;;;;;;42.83;31.93;;;;;;;;;;5010146;28;20494;-81
2021/04/05 06:54:24;;;;;;;46.05;32.67;;;;;;;;;;5009444;28;20397;-81
2021/04/05 06:57:09;;;;;;;45.45;33.60;;;;;;;;;;5010195;28;20367;-81
2021/04/05 06:59:53;;;;;;;46.22;32.65;;;;;;;;;;5010290;28;20410;-80
2021/04/05 07:02:38;;;;;;;46.67;34.28;;;;;;;;;;5008836;28;20899;-81
2021/04/05 07:05:18;;;;;;;46.13;34.60;;;;;;;;;;5010908;28;20383;-81
2021/04/05 07:07:46;;;;;;;46.30;33.15;;;;;;;;;;5009997;28;20944;-81
2021/04/05 07:10:15;;;;;;;45.55;32.70;;;;;;;;;;5010172;28;20932;-81
2021/04/05 07:12:48;;;;;;;47.80;34.85;;;;;;;;;;5011023;28;20367;-81
2021/04/05 07:15:27;;;;;;;47.60;33.42;;;;;;;;;;5009491;28;20442;-81
2021/04/05 07:18:00;;;;;;;46.70;33.80;;;;;;;;;;5009257;28;20382;-81
2021/04/05 07:20:39;;;;;;;46.67;34.20;;;;;;;;;;5008886;28;21341;-81
2021/04/05 07:23:08;;;;;;;48.03;35.15;;;;;;;;;;5011433;28;20375;-81
2021/04/05 07:25:41;;;;;;;46.25;34.72;;;;;;;;;;5010897;28;20403;-81
2021/04/05 07:28:16;;;;;;;48.20;34.63;;;;;;;;;;5009998;28;20379;-81
2021/04/05 07:30:54;;;;;;;50.35;34.83;;;;;;;;;;5009366;28;20745;-81
2021/04/05 07:33:20;;;;;;;46.65;35.17;;;;;;;;;;5010718;28;20387;-81
2021/04/05 07:36:05;;;;;;;51.22;36.35;;;;;;;;;;5011044;28;20379;-81
2021/04/05 07:38:31;;;;;;;49.42;36.65;;;;;;;;;;5009527;28;20798;-81
2021/04/05 07:41:32;;;;;;;47.25;35.53;;;;;;;;;;5010487;28;20425;-81
2021/04/05 07:44:11;;;;;;;50.35;35.95;;;;;;;;;;4972374;28;20385;-81
2021/04/05 07:46:45;;;;;;;49.10;36.60;;;;;;;;;;5003307;28;20418;-82
2021/04/05 07:49:23;;;;;;;48.55;37.30;;;;;;;;;;5008780;28;20379;-81
2021/04/05 07:51:52;;;;;;;52.57;38.53;;;;;;;;;;5009297;28;20399;-81
2021/04/05 07:54:19;;;;;;;47.83;36.88;;;;;;;;;;5009219;28;20861;-81
2021/04/05 07:56:45;;;;;;;48.83;36.83;;;;;;;;;;5009075;28;20375;-81
2021/04/05 07:59:25;;;;;;;49.33;37.35;;;;;;;;;;5008708;28;20737;-81
2021/04/05 08:02:04;;;;;;;49.00;37.28;;;;;;;;;;5008146;28;20390;-81
2021/04/05 08:04:51;;;;;;;50.72;38.75;;;;;;;;;;5009680;28;20383;-81
2021/04/05 08:07:45;;;;;;;54.60;37.93;;;;;;;;;;5007461;28;20419;-82
2021/04/05 08:10:11;;;;;;;51.10;39.42;;;;;;;;;;5009466;28;21117;-81
2021/04/05 08:12:46;;;;;;;53.63;39.20;;;;;;;;;;5008916;28;20881;-82
2021/04/05 08:15:24;;;;;;;49.72;37.45;;;;;;;;;;5007947;28;20730;-81
2021/04/05 08:17:54;;;;;;;52.78;39.78;;;;;;;;;;5008417;28;20368;-82
2021/04/05 08:20:24;;;;;;;47.78;37.22;;;;;;;;;;5008993;28;20450;-81
2021/04/05 08:23:09;;;;;;;52.17;38.97;;;;;;;;;;5007624;28;20733;-81
2021/04/05 08:28:38;;;;;;;50.40;37.42;;;;;;;;;;5011610;28;21171;-82
2021/04/05 08:31:25;;;;;;;49.53;36.50;;;;;;;;;;4993700;28;20454;-82
2021/04/05 08:33:54;;;;;;;46.90;36.50;;;;;;;;;;5008929;28;20465;-82
2021/04/05 08:36:38;;;;;;;53.70;38.83;;;;;;;;;;5008949;28;20375;-81
2021/04/05 08:39:06;;;;;;;45.72;35.92;;;;;;;;;;5008816;28;20376;-82
2021/04/05 08:41:44;;;;;;;46.55;37.30;;;;;;;;;;5009304;28;20505;-81
2021/04/05 08:44:10;;;;;;;46.57;35.83;;;;;;;;;;5009033;28;20379;-82
2021/04/05 08:46:36;;;;;;;44.78;33.42;;;;;;;;;;5007526;28;20421;-80
2021/04/05 08:49:06;;;;;;;44.83;34.47;;;;;;;;;;5008052;28;20376;-81
2021/04/05 08:51:35;;;;;;;47.60;36.63;;;;;;;;;;5007547;28;20394;-81
2021/04/05 08:54:05;;;;;;;42.22;31.58;;;;;;;;;;5008991;28;20940;-81
2021/04/05 08:56:44;;;;;;;24.57;18.37;;;;;;;;;;5009289;28;20387;-81
2021/04/05 08:59:29;;;;;;;13.07;10.43;;;;;;;;;;5011098;28;20386;-82
2021/04/05 09:02:15;;;;;;;14.38;11.32;;;;;;;;;;5011470;28;20387;-81
2021/04/05 09:04:42;;;;;;;6.07;4.40;;;;;;;;;;5010911;28;20383;-81
2021/04/05 09:07:27;;;;;;;4.43;3.20;;;;;;;;;;5011734;28;20482;-82
2021/04/05 09:09:54;;;;;;;4.07;2.40;;;;;;;;;;5011503;28;20387;-81
2021/04/05 09:12:20;;;;;;;2.85;2.15;;;;;;;;;;5012446;28;20382;-81
2021/04/05 09:14:59;;;;;;;2.00;1.80;;;;;;;;;;5011132;28;20545;-81
2021/04/05 09:17:35;;;;;;;2.95;1.90;;;;;;;;;;5011871;28;20470;-81
2021/04/05 09:20:07;;;;;;;2.67;1.80;;;;;;;;;;5012019;28;20382;-81
2021/04/05 09:22:49;;;;;;;1.85;1.40;;;;;;;;;;5011192;28;20765;-81
2021/04/05 09:25:27;;;;;;;1.60;1.48;;;;;;;;;;5010531;28;20478;-81
2021/04/05 09:27:56;;;;;;;1.77;1.30;;;;;;;;;;5012077;28;20502;-81
2021/04/05 09:30:43;;;;;;;1.55;1.20;;;;;;;;;;5012135;28;20376;-81
2021/04/05 09:33:15;;;;;;;2.22;1.40;;;;;;;;;;5012152;28;20406;-81
2021/04/05 09:36:05;;;;;;;1.88;1.17;;;;;;;;;;5011980;28;20369;-81
2021/04/05 09:38:46;;;;;;;1.83;1.00;;;;;;;;;;5010287;28;20383;-81
2021/04/05 09:41:36;;;;;;;2.17;1.13;;;;;;;;;;5011964;28;20379;-81
2021/04/05 09:44:04;;;;;;;1.23;1.02;;;;;;;;;;5012068;28;20383;-81
2021/04/05 09:46:40;;;;;;;1.98;1.05;;;;;;;;;;5011878;28;20403;-81
2021/04/05 09:49:13;;;;;;;1.33;1.00;;;;;;;;;;5011465;28;20371;-81
2021/04/05 09:51:39;;;;;;;2.60;1.50;;;;;;;;;;5012397;28;20379;-81
2021/04/05 09:54:21;;;;;;;1.30;1.10;;;;;;;;;;5011776;28;20727;-81
2021/04/05 09:56:51;;;;;;;1.95;1.30;;;;;;;;;;5011485;28;20457;-81
2021/04/05 09:59:18;;;;;;;1.40;1.30;;;;;;;;;;5010191;28;20801;-81
2021/04/05 10:01:49;;;;;;;2.13;1.38;;;;;;;;;;5011293;28;21643;-81
2021/04/05 10:04:17;;;;;;;1.33;1.10;;;;;;;;;;5010069;28;20418;-82
2021/04/05 10:06:43;;;;;;;1.85;1.10;;;;;;;;;;5010152;28;20407;-81
2021/04/05 10:09:10;;;;;;;1.20;1.10;;;;;;;;;;5008573;28;20400;-81
2021/04/05 10:11:43;;;;;;;1.67;1.20;;;;;;;;;;5010817;28;20386;-82
2021/04/05 10:14:10;;;;;;;1.83;1.45;;;;;;;;;;5011325;28;20419;-81
2021/04/05 10:16:37;;;;;;;1.87;1.30;;;;;;;;;;5011604;28;20826;-80
2021/04/05 10:19:08;;;;;;;3.08;1.67;;;;;;;;;;5012010;28;20437;-81
2021/04/05 10:21:35;;;;;;;3.22;2.22;;;;;;;;;;5011533;28;20367;-81
2021/04/05 10:24:04;;;;;;;2.40;1.88;;;;;;;;;;5011110;28;20504;-81
2021/04/05 10:26:36;;;;;;;2.90;1.77;;;;;;;;;;5010849;28;21299;-81
2021/04/05 10:29:10;;;;;;;2.42;1.50;;;;;;;;;;5010148;28;20395;-81
2021/04/05 10:31:37;;;;;;;2.97;2.00;;;;;;;;;;5011684;28;20379;-81
2021/04/05 10:34:05;;;;;;;1.90;1.70;;;;;;;;;;5010051;28;20394;-80
2021/04/05 10:36:38;;;;;;;1.90;1.55;;;;;;;;;;5011018;28;20367;-81
2021/04/05 10:39:04;;;;;;;2.88;1.70;;;;;;;;;;5009618;28;20734;-81
2021/04/05 10:41:31;;;;;;;4.45;1.92;;;;;;;;;;5010976;28;20375;-81
2021/04/05 10:44:05;;;;;;;1.83;1.25;;;;;;;;;;5011195;28;20379;-81
2021/04/05 10:46:38;;;;;;;1.88;1.20;;;;;;;;;;5011366;28;20877;-81
2021/04/05 10:49:07;;;;;;;2.97;1.60;;;;;;;;;;5010119;28;20372;-80
2021/04/05 10:51:41;;;;;;;3.05;1.10;;;;;;;;;;5011256;28;20383;-81
2021/04/05 10:54:09;;;;;;;3.22;1.20;;;;;;;;;;5010847;28;20364;-81
2021/04/05 10:56:37;;;;;;;3.47;1.47;;;;;;;;;;5010851;28;20440;-81
2021/04/05 10:59:12;;;;;;;5.35;1.50;;;;;;;;;;5010786;28;20363;-80
2021/04/05 11:01:43;;;;;;;4.65;1.20;;;;;;;;;;5009627;28;20459;-80
2021/04/05 11:04:10;;;;;;;4.97;1.50;;;;;;;;;;5009713;28;20413;-81
2021/04/05 11:06:37;;;;;;;5.40;1.40;;;;;;;;;;5011354;28;20434;-81
2021/04/05 11:09:05;;;;;;;2.63;1.13;;;;;;;;;;5010666;28;20387;-80
2021/04/05 11:11:32;;;;;;;3.40;1.20;;;;;;;;;;5009966;28;21188;-81
2021/04/05 11:14:04;;;;;;;2.65;1.27;;;;;;;;;;5010701;28;20862;-80
2021/04/05 11:16:30;;;;;;;4.15;1.40;;;;;;;;;;5014035;28;20869;-81
2021/04/05 11:18:59;;;;;;;5.18;1.60;;;;;;;;;;5012999;28;20849;-81
2021/04/05 11:21:40;;;;;;;4.38;1.60;;;;;;;;;;5012406;28;20846;-80
2021/04/05 11:24:09;;;;;;;5.72;1.63;;;;;;;;;;5011059;28;20403;-81
2021/04/05 11:26:36;;;;;;;4.83;1.60;;;;;;;;;;5010281;28;20505;-81
2021/04/05 11:29:05;;;;;;;4.30;1.67;;;;;;;;;;5009649;28;20900;-81
2021/04/05 11:31:35;;;;;;;3.63;1.60;;;;;;;;;;5010755;28;20386;-81
2021/04/05 11:34:02;;;;;;;4.35;2.05;;;;;;;;;;5009938;28;20406;-81
2021/04/05 11:36:39;;;;;;;5.75;1.90;;;;;;;;;;5010139;28;20382;-80
2021/04/05 11:39:10;;;;;;;3.28;1.50;;;;;;;;;;5009412;28;20374;-80
2021/04/05 11:41:37;;;;;;;4.73;2.50;;;;;;;;;;5010328;28;20377;-81
2021/04/05 11:44:03;;;;;;;3.63;2.00;;;;;;;;;;5009988;28;20390;-80
2021/04/05 11:46:34;;;;;;;3.33;1.70;;;;;;;;;;5010116;28;20494;-80
2021/04/05 11:49:08;;;;;;;3.15;2.22;;;;;;;;;;5009057;28;20497;-80
2021/04/05 11:51:45;;;;;;;4.45;2.15;;;;;;;;;;5009520;28;20873;-81
2021/04/05 11:54:16;;;;;;;5.25;1.73;;;;;;;;;;5008299;28;20415;-80
2021/04/05 11:56:45;;;;;;;2.42;1.23;;;;;;;;;;5010301;28;20859;-80
2021/04/05 11:59:20;;;;;;;2.67;1.30;;;;;;;;;;5010207;28;20386;-80
2021/04/05 12:01:59;;;;;;;2.63;1.60;;;;;;;;;;5010382;28;20394;-80
2021/04/05 12:04:38;;;;;;;3.75;1.70;;;;;;;;;;5010317;28;20375;-79
2021/04/05 12:07:16;;;;;;;1.17;0.80;;;;;;;;;;5008077;28;20488;-81
2021/04/05 12:09:47;;;;;;;1.20;0.80;;;;;;;;;;5010363;28;20387;-81
2021/04/05 12:12:21;;;;;;;1.42;0.70;;;;;;;;;;4992282;28;20402;-81
2021/04/05 12:14:52;;;;;;;1.02;0.73;;;;;;;;;;5008378;28;20387;-80
2021/04/05 12:17:20;;;;;;;0.70;0.60;;;;;;;;;;5009490;28;20371;-81
2021/04/05 12:19:46;;;;;;;1.35;0.80;;;;;;;;;;5009912;28;20371;-81
2021/04/05 12:22:13;;;;;;;1.08;0.90;;;;;;;;;;5009472;28;20367;-80
2021/04/05 12:24:46;;;;;;;1.23;0.68;;;;;;;;;;5009457;28;20391;-80
2021/04/05 12:27:13;;;;;;;1.80;0.95;;;;;;;;;;5009462;28;20413;-80
2021/04/05 12:29:41;;;;;;;1.25;0.65;;;;;;;;;;5010493;28;20379;-81
2021/04/05 12:32:08;;;;;;;2.03;0.80;;;;;;;;;;5015439;28;20871;-81
2021/04/05 12:34:36;;;;;;;1.40;0.70;;;;;;;;;;5015523;28;20378;-81
2021/04/05 12:37:03;;;;;;;0.95;0.70;;;;;;;;;;5011339;28;20482;-80
2021/04/05 12:39:31;;;;;;;1.85;0.60;;;;;;;;;;5013513;28;20470;-81
2021/04/05 12:41:57;;;;;;;1.40;0.70;;;;;;;;;;5012383;28;20423;-81
2021/04/05 12:44:26;;;;;;;1.80;0.80;;;;;;;;;;5013564;28;20378;-81
2021/04/05 12:46:53;;;;;;;1.85;0.73;;;;;;;;;;5013218;28;20816;-81
2021/04/05 12:49:22;;;;;;;1.10;0.80;;;;;;;;;;5013807;28;20884;-81
2021/04/05 12:51:53;;;;;;;1.00;0.70;;;;;;;;;;5012343;28;20395;-81
2021/04/05 12:54:21;;;;;;;1.23;0.70;;;;;;;;;;5013321;28;20461;-80
2021/04/05 12:56:49;;;;;;;1.33;0.75;;;;;;;;;;5012197;28;20383;-81
2021/04/05 12:59:20;;;;;;;1.98;0.70;;;;;;;;;;5013001;28;20386;-80
2021/04/05 13:01:51;;;;;;;1.17;0.88;;;;;;;;;;5013352;28;20402;-80
2021/04/05 13:04:24;;;;;;;1.73;0.60;;;;;;;;;;5012993;28;20368;-81
2021/04/05 13:06:56;;;;;;;1.60;0.68;;;;;;;;;;5012594;28;20510;-81
2021/04/05 13:09:27;;;;;;;1.10;0.60;;;;;;;;;;5012858;28;20391;-81
2021/04/05 13:11:55;;;;;;;1.53;0.80;;;;;;;;;;5013163;28;20399;-81
2021/04/05 13:14:26;;;;;;;0.70;0.50;;;;;;;;;;5013109;28;20407;-81
2021/04/05 13:16:58;;;;;;;1.25;0.50;;;;;;;;;;5012445;28;20416;-81
2021/04/05 13:19:27;;;;;;;1.20;0.77;;;;;;;;;;5012316;28;20378;-81
2021/04/05 13:21:53;;;;;;;1.83;0.80;;;;;;;;;;5011169;28;20394;-79
2021/04/05 13:24:21;;;;;;;2.40;0.68;;;;;;;;;;5011231;28;20371;-81
2021/04/05 13:26:50;;;;;;;3.22;1.20;;;;;;;;;;5012353;28;20494;-81
2021/04/05 13:29:20;;;;;;;3.47;1.08;;;;;;;;;;5011547;28;20477;-81
2021/04/05 13:31:49;;;;;;;4.68;1.65;;;;;;;;;;5011838;28;20384;-80
2021/04/05 13:34:21;;;;;;;4.15;1.40;;;;;;;;;;5012649;28;20386;-81
2021/04/05 13:36:47;;;;;;;4.43;1.45;;;;;;;;;;5013166;28;20711;-81
2021/04/05 13:39:14;;;;;;;4.20;1.50;;;;;;;;;;5011470;28;20395;-81
2021/04/05 13:41:40;;;;;;;3.42;1.25;;;;;;;;;;5011601;28;20441;-81
2021/04/05 13:44:16;;;;;;;5.25;1.45;;;;;;;;;;5010320;28;20457;-81
2021/04/05 13:46:49;;;;;;;3.83;1.35;;;;;;;;;;5012503;28;20446;-81
2021/04/05 13:49:19;;;;;;;4.72;1.38;;;;;;;;;;5010704;28;20475;-80
2021/04/05 13:51:49;;;;;;;3.65;1.35;;;;;;;;;;5012796;28;20390;-81
2021/04/05 13:54:15;;;;;;;4.43;1.33;;;;;;;;;;5010812;28;20916;-81
2021/04/05 13:56:41;;;;;;;4.47;1.63;;;;;;;;;;5010753;28;20375;-80
2021/04/05 13:59:14;;;;;;;3.33;1.30;;;;;;;;;;5011239;28;20394;-81
2021/04/05 14:01:43;;;;;;;3.33;1.33;;;;;;;;;;5011741;28;20371;-80
2021/04/05 14:04:11;;;;;;;3.63;1.40;;;;;;;;;;5012516;28;20817;-81
2021/04/05 14:06:38;;;;;;;4.68;1.58;;;;;;;;;;5013059;28;20443;-81
2021/04/05 14:09:11;;;;;;;4.68;1.40;;;;;;;;;;5011235;28;20506;-81
2021/04/05 14:11:38;;;;;;;3.92;1.38;;;;;;;;;;5010878;28;20429;-81
2021/04/05 14:14:04;;;;;;;6.25;1.58;;;;;;;;;;5011048;28;20379;-81
2021/04/05 14:16:33;;;;;;;4.33;1.50;;;;;;;;;;5011083;28;20457;-80
2021/04/05 14:19:02;;;;;;;4.70;1.70;;;;;;;;;;5009104;28;20371;-81
2021/04/05 14:21:29;;;;;;;8.65;2.15;;;;;;;;;;5011328;28;20850;-81
2021/04/05 14:24:02;;;;;;;6.35;1.77;;;;;;;;;;5010243;28;20831;-81
2021/04/05 14:26:30;;;;;;;8.73;2.55;;;;;;;;;;5011410;28;20980;-81
2021/04/05 14:28:58;;;;;;;7.97;2.20;;;;;;;;;;5010745;28;20403;-81
2021/04/05 14:31:30;;;;;;;6.20;2.10;;;;;;;;;;5009440;28;20758;-80
2021/04/05 14:33:58;;;;;;;8.00;2.27;;;;;;;;;;5009883;28;20931;-80
2021/04/05 14:36:34;;;;;;;6.53;2.45;;;;;;;;;;5010696;28;20475;-80
2021/04/05 14:39:06;;;;;;;6.88;2.65;;;;;;;;;;5009993;28;20441;-80
2021/04/05 14:41:35;;;;;;;6.93;2.17;;;;;;;;;;5010521;28;20379;-81
2021/04/05 14:44:11;;;;;;;8.30;2.53;;;;;;;;;;5009269;28;20415;-81
2021/04/05 14:46:51;;;;;;;7.68;2.33;;;;;;;;;;5008984;28;20442;-81